Time,TemperatureF,DewpointF,PressureIn,WindDirection,WindDirectionDegrees,WindSpeedMPH,WindSpeedGustMPH,Humidity,HourlyPrecipIn,Conditions,Clouds,dailyrainin,SolarRadiationWatts/m^2,SoftwareType,DateUTC
2013-10-10 00:04:00,62.0,60.0,30.12,NE,51,0.0,0.0,93,0.00,,,0.00,0,Wunderground v.1.15,2013-10-10 05:04:00,
2013-10-10 00:09:00,62.0,60.0,30.12,NE,51,0.0,0.0,93,0.00,,,0.00,0,Wunderground v.1.15,2013-10-10 05:09:00,
2013-10-10 00:19:00,62.2,59.8,30.12,NE,51,0.0,0.0,92,0.00,,,0.00,0,Wunderground v.1.15,2013-10-10 05:19:00,
2013-10-10 00:29:00,62.3,59.9,30.12,NE,51,0.0,0.0,92,0.00,,,0.00,0,Wunderground v.1.15,2013-10-10 05:29:00,
2013-10-10 00:34:00,62.4,60.0,30.12,NE,51,0.0,0.0,92,0.00,,,0.00,0,Wunderground v.1.15,2013-10-10 05:34:00,
2013-10-10 00:39:00,62.5,60.1,30.12,NE,51,0.0,0.0,92,0.00,,,0.00,0,Wunderground v.1.15,2013-10-10 05:39:00,
2013-10-10 00:49:00,62.6,60.5,30.12,NE,51,0.0,0.0,93,0.00,,,0.00,0,Wunderground v.1.15,2013-10-10 05:49:00,
2013-10-10 00:54:00,62.6,60.5,30.12,NE,51,0.0,0.0,93,0.00,,,0.00,0,Wunderground v.1.15,2013-10-10 05:54:00,
2013-10-10 01:04:00,62.5,60.1,30.12,NE,51,0.0,0.0,92,0.00,,,0.00,0,Wunderground v.1.15,2013-10-10 06:04:00,
2013-10-10 01:09:00,62.4,60.0,30.12,NE,51,0.0,0.0,92,0.00,,,0.00,0,Wunderground v.1.15,2013-10-10 06:09:00,
2013-10-10 01:19:00,62.2,60.2,30.12,NE,51,0.0,0.0,93,0.00,,,0.00,0,Wunderground v.1.15,2013-10-10 06:19:00,
2013-10-10 01:29:00,62.0,60.0,30.12,NE,51,0.0,0.0,93,0.00,,,0.00,0,Wunderground v.1.15,2013-10-10 06:29:00,
2013-10-10 01:34:00,62.0,60.0,30.12,NE,51,0.0,0.0,93,0.00,,,0.00,0,Wunderground v.1.15,2013-10-10 06:34:00,
2013-10-10 01:44:00,62.1,60.1,30.12,NE,51,0.0,0.0,93,0.00,,,0.00,0,Wunderground v.1.15,2013-10-10 06:44:00,
2013-10-10 01:54:00,62.3,60.2,30.12,NE,51,0.0,0.0,93,0.00,,,0.00,0,Wunderground v.1.15,2013-10-10 06:54:00,
2013-10-10 02:04:00,62.3,60.2,30.12,NE,51,0.0,0.0,93,0.00,,,0.00,0,Wunderground v.1.15,2013-10-10 07:04:00,
2013-10-10 02:09:00,62.1,60.1,30.12,NE,51,0.0,0.0,93,0.00,,,0.00,0,Wunderground v.1.15,2013-10-10 07:09:00,
2013-10-10 02:19:00,62.0,60.0,30.11,NE,51,0.0,0.0,93,0.00,,,0.00,0,Wunderground v.1.15,2013-10-10 07:19:00,
2013-10-10 02:29:00,62.0,60.0,30.12,NE,51,0.0,0.0,93,0.00,,,0.00,0,Wunderground v.1.15,2013-10-10 07:29:00,
2013-10-10 02:34:00,62.0,59.6,30.12,NE,51,0.0,0.0,92,0.00,,,0.00,0,Wunderground v.1.15,2013-10-10 07:34:00,
2013-10-10 02:44:00,61.9,59.9,30.11,NE,51,0.0,0.0,93,0.00,,,0.00,0,Wunderground v.1.15,2013-10-10 07:44:00,
2013-10-10 02:54:00,61.7,59.7,30.11,NE,51,0.0,0.0,93,0.00,,,0.00,0,Wunderground v.1.15,2013-10-10 07:54:00,
2013-10-10 02:59:00,61.7,60.0,30.11,NE,51,0.0,0.0,94,0.00,,,0.00,0,Wunderground v.1.15,2013-10-10 07:59:00,
2013-10-10 03:09:00,61.7,60.0,30.11,NE,51,0.0,0.0,94,0.00,,,0.00,0,Wunderground v.1.15,2013-10-10 08:09:00,
2013-10-10 03:19:00,62.0,60.3,30.11,NE,51,0.0,0.0,94,0.00,,,0.00,0,Wunderground v.1.15,2013-10-10 08:19:00,
2013-10-10 03:29:00,62.1,60.4,30.11,NE,51,0.0,0.0,94,0.00,,,0.00,0,Wunderground v.1.15,2013-10-10 08:29:00,
2013-10-10 03:34:00,62.1,60.4,30.11,NE,51,0.0,0.0,94,0.00,,,0.00,0,Wunderground v.1.15,2013-10-10 08:34:00,
2013-10-10 03:44:00,61.9,60.2,30.11,NE,51,0.0,0.0,94,0.00,,,0.00,0,Wunderground v.1.15,2013-10-10 08:44:00,
2013-10-10 03:54:00,61.4,59.7,30.11,NE,51,0.0,0.0,94,0.00,,,0.00,0,Wunderground v.1.15,2013-10-10 08:54:00,
2013-10-10 04:04:00,60.9,59.5,30.11,NE,51,0.0,0.0,95,0.00,,,0.00,0,Wunderground v.1.15,2013-10-10 09:04:00,
2013-10-10 04:09:00,60.6,59.2,30.11,NE,51,0.0,0.0,95,0.00,,,0.00,0,Wunderground v.1.15,2013-10-10 09:09:00,
2013-10-10 04:19:00,60.2,59.1,30.12,NE,51,0.0,0.0,96,0.00,,,0.00,0,Wunderground v.1.15,2013-10-10 09:19:00,
2013-10-10 04:29:00,60.1,59.2,30.12,NE,51,0.0,0.0,97,0.00,,,0.00,0,Wunderground v.1.15,2013-10-10 09:29:00,
2013-10-10 04:39:00,60.1,59.2,30.13,NE,51,0.0,0.0,97,0.00,,,0.00,0,Wunderground v.1.15,2013-10-10 09:39:00,
2013-10-10 04:44:00,60.1,59.2,30.13,NE,51,0.0,0.0,97,0.00,,,0.00,0,Wunderground v.1.15,2013-10-10 09:44:00,
2013-10-10 04:54:00,60.1,59.2,30.13,NE,51,0.0,0.0,97,0.00,,,0.00,0,Wunderground v.1.15,2013-10-10 09:54:00,
2013-10-10 04:59:00,60.1,59.2,30.13,NE,51,0.0,0.0,97,0.00,,,0.00,0,Wunderground v.1.15,2013-10-10 09:59:00,
2013-10-10 05:09:00,60.0,59.1,30.13,NE,51,0.0,0.0,97,0.00,,,0.00,0,Wunderground v.1.15,2013-10-10 10:09:00,
2013-10-10 05:19:00,59.9,59.0,30.13,NE,51,0.0,0.0,97,0.00,,,0.00,0,Wunderground v.1.15,2013-10-10 10:19:00,
2013-10-10 05:24:00,59.8,58.9,30.13,NE,51,0.0,0.0,97,0.00,,,0.00,0,Wunderground v.1.15,2013-10-10 10:24:00,
2013-10-10 05:34:00,59.6,58.7,30.13,NE,51,0.0,0.0,97,0.00,,,0.00,0,Wunderground v.1.15,2013-10-10 10:34:00,
2013-10-10 05:39:00,59.5,58.6,30.14,NE,51,0.0,0.0,97,0.00,,,0.00,0,Wunderground v.1.15,2013-10-10 10:39:00,
2013-10-10 05:49:00,59.3,58.4,30.14,NE,51,0.0,0.0,97,0.00,,,0.00,0,Wunderground v.1.15,2013-10-10 10:49:00,
2013-10-10 05:54:00,59.3,58.4,30.14,NE,51,0.0,0.0,97,0.00,,,0.00,0,Wunderground v.1.15,2013-10-10 10:54:00,
2013-10-10 06:04:00,59.2,58.6,30.14,NE,51,0.0,0.0,98,0.00,,,0.00,0,Wunderground v.1.15,2013-10-10 11:04:00,
2013-10-10 06:14:00,59.0,58.4,30.14,NE,51,0.0,0.0,98,0.00,,,0.00,0,Wunderground v.1.15,2013-10-10 11:14:00,
2013-10-10 06:24:00,59.0,58.4,30.14,NE,51,0.0,0.0,98,0.00,,,0.00,0,Wunderground v.1.15,2013-10-10 11:24:00,
2013-10-10 06:34:00,59.1,58.5,30.14,NE,51,0.0,0.0,98,0.00,,,0.00,0,Wunderground v.1.15,2013-10-10 11:34:00,
2013-10-10 06:39:00,59.0,58.4,30.14,NE,51,0.0,0.0,98,0.00,,,0.00,0,Wunderground v.1.15,2013-10-10 11:39:00,
2013-10-10 06:49:00,59.1,58.5,30.14,NE,51,0.0,0.0,98,0.00,,,0.00,5,Wunderground v.1.15,2013-10-10 11:49:00,
2013-10-10 06:59:00,58.9,58.3,30.14,NE,51,0.0,1.0,98,0.00,,,0.00,14,Wunderground v.1.15,2013-10-10 11:59:00,
2013-10-10 07:09:00,58.7,58.1,30.14,NE,51,0.0,0.0,98,0.00,,,0.00,19,Wunderground v.1.15,2013-10-10 12:09:00,
2013-10-10 07:19:00,58.8,58.2,30.15,NE,51,0.0,0.0,98,0.00,,,0.00,25,Wunderground v.1.15,2013-10-10 12:19:00,
2013-10-10 07:29:00,59.0,58.4,30.15,NE,51,0.0,0.0,98,0.00,,,0.00,28,Wunderground v.1.15,2013-10-10 12:29:00,
2013-10-10 07:34:00,59.0,58.4,30.15,NE,51,0.0,0.0,98,0.00,,,0.00,30,Wunderground v.1.15,2013-10-10 12:34:00,
2013-10-10 07:44:00,59.4,58.8,30.15,NE,51,1.0,1.0,98,0.00,,,0.00,35,Wunderground v.1.15,2013-10-10 12:44:00,
2013-10-10 07:54:00,59.5,58.9,30.15,NE,51,0.0,0.0,98,0.00,,,0.00,39,Wunderground v.1.15,2013-10-10 12:54:00,
2013-10-10 07:59:00,59.7,59.1,30.15,NE,51,0.0,0.0,98,0.00,,,0.00,51,Wunderground v.1.15,2013-10-10 12:59:00,
2013-10-10 08:09:00,60.7,60.1,30.15,NE,51,0.0,0.0,98,0.00,,,0.00,225,Wunderground v.1.15,2013-10-10 13:09:00,
2013-10-10 08:19:00,62.3,61.4,30.15,NE,51,0.0,0.0,97,0.00,,,0.00,262,Wunderground v.1.15,2013-10-10 13:19:00,
2013-10-10 08:29:00,63.7,61.3,30.16,NE,51,0.0,2.0,92,0.00,,,0.00,309,Wunderground v.1.15,2013-10-10 13:29:00,
2013-10-10 08:34:00,64.5,61.2,30.16,NE,51,1.0,2.0,89,0.00,,,0.00,330,Wunderground v.1.15,2013-10-10 13:34:00,
2013-10-10 08:44:00,65.9,61.3,30.16,NNE,16,2.0,2.0,85,0.00,,,0.00,374,Wunderground v.1.15,2013-10-10 13:44:00,
2013-10-10 08:54:00,66.5,60.5,30.16,NNE,32,0.0,0.0,81,0.00,,,0.00,455,Wunderground v.1.15,2013-10-10 13:54:00,
2013-10-10 08:59:00,67.2,61.2,30.16,ENE,67,0.0,2.0,81,0.00,,,0.00,452,Wunderground v.1.15,2013-10-10 13:59:00,
2013-10-10 09:09:00,68.1,62.0,30.16,ENE,72,0.0,0.0,81,0.00,,,0.00,272,Wunderground v.1.15,2013-10-10 14:09:00,
2013-10-10 09:14:00,68.5,61.4,30.16,NE,56,0.0,1.0,78,0.00,,,0.00,255,Wunderground v.1.15,2013-10-10 14:14:00,
2013-10-10 09:24:00,69.2,61.3,30.16,NNE,19,0.0,0.0,76,0.00,,,0.00,283,Wunderground v.1.15,2013-10-10 14:24:00,
2013-10-10 09:29:00,69.2,61.7,30.16,NNE,19,0.0,0.0,77,0.00,,,0.00,308,Wunderground v.1.15,2013-10-10 14:29:00,
2013-10-10 09:39:00,69.5,62.0,30.16,NNE,19,0.0,0.0,77,0.00,,,0.00,436,Wunderground v.1.15,2013-10-10 14:39:00,
2013-10-10 09:44:00,70.4,62.8,30.16,North,5,0.0,0.0,77,0.00,,,0.00,591,Wunderground v.1.15,2013-10-10 14:44:00,
2013-10-10 09:54:00,71.4,61.9,30.16,WNW,292,0.0,2.0,72,0.00,,,0.00,503,Wunderground v.1.15,2013-10-10 14:54:00,
2013-10-10 10:04:00,72.5,62.2,30.15,WNW,300,0.0,0.0,70,0.00,,,0.00,515,Wunderground v.1.15,2013-10-10 15:04:00,
2013-10-10 10:09:00,72.0,62.9,30.15,SSE,148,1.0,1.0,73,0.00,,,0.00,578,Wunderground v.1.15,2013-10-10 15:09:00,
2013-10-10 10:19:00,73.0,61.8,30.15,West,263,1.0,2.0,68,0.00,,,0.00,605,Wunderground v.1.15,2013-10-10 15:19:00,
2013-10-10 10:29:00,73.5,63.5,30.15,West,261,1.0,3.0,71,0.00,,,0.00,626,Wunderground v.1.15,2013-10-10 15:29:00,
2013-10-10 10:39:00,73.2,61.2,30.15,NE,37,2.0,2.0,66,0.00,,,0.00,137,Wunderground v.1.15,2013-10-10 15:39:00,
2013-10-10 10:44:00,72.5,61.7,30.15,NE,34,2.0,2.0,69,0.00,,,0.00,204,Wunderground v.1.15,2013-10-10 15:44:00,
2013-10-10 10:54:00,73.1,61.5,30.16,WNW,297,1.0,1.0,67,0.00,,,0.00,628,Wunderground v.1.15,2013-10-10 15:54:00,
2013-10-10 11:04:00,73.9,63.1,30.15,SSW,207,0.0,1.0,69,0.00,,,0.00,362,Wunderground v.1.15,2013-10-10 16:04:00,
2013-10-10 11:14:00,74.6,62.9,30.15,SW,223,1.0,1.0,67,0.00,,,0.00,940,Wunderground v.1.15,2013-10-10 16:14:00,
2013-10-10 11:24:00,76.1,66.0,30.15,North,355,1.0,1.0,71,0.00,,,0.00,846,Wunderground v.1.15,2013-10-10 16:24:00,
2013-10-10 11:29:00,74.8,62.2,30.15,NNE,30,1.0,2.0,65,0.00,,,0.00,190,Wunderground v.1.15,2013-10-10 16:29:00,
2013-10-10 11:39:00,72.8,62.0,30.15,West,273,1.0,2.0,69,0.00,,,0.00,200,Wunderground v.1.15,2013-10-10 16:39:00,
2013-10-10 11:44:00,72.8,63.2,30.14,West,273,0.0,0.0,72,0.00,,,0.00,269,Wunderground v.1.15,2013-10-10 16:44:00,
2013-10-10 11:54:00,76.4,65.1,30.14,SW,225,2.0,2.0,68,0.00,,,0.00,937,Wunderground v.1.15,2013-10-10 16:54:00,
2013-10-10 12:03:00,73.1,61.9,30.14,NNE,21,2.0,2.0,68,0.00,,,0.00,197,Wunderground v.1.15,2013-10-10 17:03:00,
2013-10-10 12:09:00,72.6,61.8,30.14,North,9,1.0,2.0,69,0.00,,,0.00,229,Wunderground v.1.15,2013-10-10 17:09:00,
2013-10-10 12:14:00,72.5,62.6,30.13,West,279,1.0,1.0,71,0.00,,,0.00,264,Wunderground v.1.15,2013-10-10 17:14:00,
2013-10-10 12:24:00,73.1,62.3,30.13,NNW,343,1.0,1.0,69,0.00,,,0.00,408,Wunderground v.1.15,2013-10-10 17:24:00,
2013-10-10 12:29:00,73.3,62.1,30.13,ENE,71,1.0,1.0,68,0.00,,,0.00,322,Wunderground v.1.15,2013-10-10 17:29:00,
2013-10-10 12:39:00,73.7,62.9,30.13,NNE,30,2.0,2.0,69,0.00,,,0.00,357,Wunderground v.1.15,2013-10-10 17:39:00,
2013-10-10 12:49:00,75.3,62.3,30.12,NNE,31,4.0,5.0,64,0.00,,,0.00,847,Wunderground v.1.15,2013-10-10 17:49:00,
2013-10-10 12:54:00,75.1,62.5,30.12,North,5,3.0,3.0,65,0.00,,,0.00,784,Wunderground v.1.15,2013-10-10 17:54:00,
2013-10-10 13:04:00,76.7,63.2,30.11,ENE,74,2.0,2.0,63,0.00,,,0.00,828,Wunderground v.1.15,2013-10-10 18:04:00,
2013-10-10 13:14:00,74.8,62.7,30.11,West,267,1.0,1.0,66,0.00,,,0.00,243,Wunderground v.1.15,2013-10-10 18:14:00,
2013-10-10 13:19:00,74.2,63.0,30.10,WNW,285,0.0,1.0,68,0.00,,,0.00,244,Wunderground v.1.15,2013-10-10 18:19:00,
2013-10-10 13:29:00,76.0,63.4,30.10,NW,321,0.0,0.0,65,0.00,,,0.00,777,Wunderground v.1.15,2013-10-10 18:29:00,
2013-10-10 13:34:00,76.4,62.0,30.10,NNE,13,1.0,2.0,61,0.00,,,0.00,733,Wunderground v.1.15,2013-10-10 18:34:00,
2013-10-10 13:44:00,77.0,64.3,30.09,NW,311,2.0,2.0,65,0.00,,,0.00,831,Wunderground v.1.15,2013-10-10 18:44:00,
2013-10-10 13:59:00,75.4,61.0,30.09,NE,42,2.0,3.0,61,0.00,,,0.00,246,Wunderground v.1.15,2013-10-10 18:59:00,
2013-10-10 14:09:00,75.9,63.3,30.08,NNW,342,1.0,2.0,65,0.00,,,0.00,758,Wunderground v.1.15,2013-10-10 19:09:00,
2013-10-10 14:14:00,75.0,60.6,30.08,NNW,327,1.0,3.0,61,0.00,,,0.00,197,Wunderground v.1.15,2013-10-10 19:14:00,
2013-10-10 14:29:00,74.5,62.8,30.08,NNE,19,0.0,0.0,67,0.00,,,0.00,206,Wunderground v.1.15,2013-10-10 19:29:00,
2013-10-10 14:34:00,75.8,63.6,30.08,North,9,0.0,0.0,66,0.00,,,0.00,721,Wunderground v.1.15,2013-10-10 19:34:00,
2013-10-10 14:44:00,77.1,61.7,30.07,NNE,31,1.0,2.0,59,0.00,,,0.00,638,Wunderground v.1.15,2013-10-10 19:44:00,
2013-10-10 14:49:00,77.1,62.1,30.07,NW,318,1.0,1.0,60,0.00,,,0.00,668,Wunderground v.1.15,2013-10-10 19:49:00,
2013-10-10 14:59:00,76.5,61.6,30.07,NNE,22,1.0,1.0,60,0.00,,,0.00,135,Wunderground v.1.15,2013-10-10 19:59:00,
2013-10-10 15:08:00,76.1,60.7,30.07,NE,35,1.0,2.0,59,0.00,,,0.00,120,Wunderground v.1.15,2013-10-10 20:08:00,
2013-10-10 15:14:00,75.6,59.3,30.07,West,266,0.0,0.0,57,0.00,,,0.00,109,Wunderground v.1.15,2013-10-10 20:14:00,
2013-10-10 15:24:00,73.6,60.7,30.07,West,266,0.0,0.0,64,0.00,,,0.00,79,Wunderground v.1.15,2013-10-10 20:24:00,
2013-10-10 15:34:00,73.1,61.1,30.07,West,276,0.0,0.0,66,0.00,,,0.00,114,Wunderground v.1.15,2013-10-10 20:34:00,
2013-10-10 15:39:00,72.6,62.3,30.07,West,276,0.0,0.0,70,0.00,,,0.00,105,Wunderground v.1.15,2013-10-10 20:39:00,
2013-10-10 15:49:00,73.8,62.6,30.06,West,276,0.0,0.0,68,0.00,,,0.00,471,Wunderground v.1.15,2013-10-10 20:49:00,
2013-10-10 15:54:00,75.3,61.8,30.06,NNW,332,0.0,0.0,63,0.00,,,0.00,464,Wunderground v.1.15,2013-10-10 20:54:00,
2013-10-10 16:04:00,74.3,61.3,30.06,North,355,0.0,1.0,64,0.00,,,0.00,135,Wunderground v.1.15,2013-10-10 21:04:00,
2013-10-10 16:09:00,73.8,61.3,30.06,NNW,339,0.0,1.0,65,0.00,,,0.00,121,Wunderground v.1.15,2013-10-10 21:09:00,
2013-10-10 16:19:00,73.1,61.9,30.06,NNW,339,0.0,0.0,68,0.00,,,0.00,107,Wunderground v.1.15,2013-10-10 21:19:00,
2013-10-10 16:24:00,72.8,62.4,30.06,NNW,339,0.0,0.0,70,0.00,,,0.00,223,Wunderground v.1.15,2013-10-10 21:24:00,
2013-10-10 16:34:00,73.6,61.1,30.05,NW,317,0.0,0.0,65,0.00,,,0.00,306,Wunderground v.1.15,2013-10-10 21:34:00,
2013-10-10 16:44:00,73.9,61.8,30.05,WNW,302,0.0,0.0,66,0.00,,,0.00,262,Wunderground v.1.15,2013-10-10 21:44:00,
2013-10-10 16:49:00,73.9,61.4,30.05,WNW,302,0.0,0.0,65,0.00,,,0.00,241,Wunderground v.1.15,2013-10-10 21:49:00,
2013-10-10 16:59:00,73.4,61.3,30.05,WNW,302,0.0,0.0,66,0.00,,,0.00,190,Wunderground v.1.15,2013-10-10 21:59:00,
2013-10-10 17:09:00,73.0,60.5,30.04,NNW,344,0.0,0.0,65,0.00,,,0.00,127,Wunderground v.1.15,2013-10-10 22:09:00,
2013-10-10 17:14:00,72.6,62.3,30.04,NE,49,0.0,0.0,70,0.00,,,0.00,135,Wunderground v.1.15,2013-10-10 22:14:00,
2013-10-10 17:24:00,72.0,62.1,30.05,NNE,17,0.0,0.0,71,0.00,,,0.00,69,Wunderground v.1.15,2013-10-10 22:24:00,
2013-10-10 17:34:00,71.0,62.3,30.04,NNE,17,0.0,0.0,74,0.00,,,0.00,53,Wunderground v.1.15,2013-10-10 22:34:00,
2013-10-10 17:39:00,70.5,62.6,30.04,NNE,17,0.0,0.0,76,0.00,,,0.00,35,Wunderground v.1.15,2013-10-10 22:39:00,
2013-10-10 17:49:00,69.5,62.0,30.04,NNE,17,0.0,0.0,77,0.00,,,0.00,28,Wunderground v.1.15,2013-10-10 22:49:00,
2013-10-10 17:54:00,69.1,61.6,30.04,NNE,17,0.0,0.0,77,0.00,,,0.00,26,Wunderground v.1.15,2013-10-10 22:54:00,
2013-10-10 18:04:00,68.1,61.7,30.04,NNE,17,0.0,0.0,80,0.00,,,0.00,14,Wunderground v.1.15,2013-10-10 23:04:00,
2013-10-10 18:14:00,67.1,62.1,30.04,NNE,17,0.0,0.0,84,0.00,,,0.00,9,Wunderground v.1.15,2013-10-10 23:14:00,
2013-10-10 18:19:00,66.7,62.0,30.04,NNE,17,0.0,0.0,85,0.00,,,0.00,5,Wunderground v.1.15,2013-10-10 23:19:00,
2013-10-10 18:29:00,65.7,61.7,30.04,NNE,17,0.0,0.0,87,0.00,,,0.00,0,Wunderground v.1.15,2013-10-10 23:29:00,
2013-10-10 18:39:00,64.8,61.5,30.04,NNE,17,0.0,0.0,89,0.00,,,0.00,0,Wunderground v.1.15,2013-10-10 23:39:00,
2013-10-10 18:44:00,64.4,61.4,30.04,NNE,17,0.0,0.0,90,0.00,,,0.00,0,Wunderground v.1.15,2013-10-10 23:44:00,
2013-10-10 18:54:00,64.1,61.1,30.04,NNE,17,0.0,0.0,90,0.00,,,0.00,0,Wunderground v.1.15,2013-10-10 23:54:00,
2013-10-10 19:04:00,63.5,60.8,30.04,NNE,17,0.0,0.0,91,0.00,,,0.00,0,Wunderground v.1.15,2013-10-11 00:04:00,
2013-10-10 19:09:00,63.2,60.5,30.04,NNE,17,0.0,0.0,91,0.00,,,0.00,0,Wunderground v.1.15,2013-10-11 00:09:00,
2013-10-10 19:19:00,62.8,60.4,30.04,NNE,17,0.0,0.0,92,0.00,,,0.00,0,Wunderground v.1.15,2013-10-11 00:19:00,
2013-10-10 19:29:00,62.4,60.3,30.04,NNE,17,0.0,0.0,93,0.00,,,0.00,0,Wunderground v.1.15,2013-10-11 00:29:00,
2013-10-10 19:34:00,62.3,60.2,30.04,NNE,17,0.0,0.0,93,0.00,,,0.00,0,Wunderground v.1.15,2013-10-11 00:34:00,
2013-10-10 19:44:00,62.0,60.0,30.04,NNE,17,0.0,0.0,93,0.00,,,0.00,0,Wunderground v.1.15,2013-10-11 00:44:00,
2013-10-10 19:49:00,61.8,59.8,30.04,NNE,17,0.0,0.0,93,0.00,,,0.00,0,Wunderground v.1.15,2013-10-11 00:49:00,
2013-10-10 19:59:00,61.7,59.7,30.04,NNE,17,0.0,0.0,93,0.00,,,0.00,0,Wunderground v.1.15,2013-10-11 00:59:00,
2013-10-10 20:04:00,61.6,59.6,30.04,NNE,17,0.0,0.0,93,0.00,,,0.00,0,Wunderground v.1.15,2013-10-11 01:04:00,
2013-10-10 20:14:00,61.2,59.5,30.04,NNE,17,0.0,0.0,94,0.00,,,0.00,0,Wunderground v.1.15,2013-10-11 01:14:00,
2013-10-10 20:24:00,60.9,59.2,30.04,NNE,17,0.0,0.0,94,0.00,,,0.00,0,Wunderground v.1.15,2013-10-11 01:24:00,
2013-10-10 20:29:00,61.0,59.3,30.04,NNE,17,0.0,0.0,94,0.00,,,0.00,0,Wunderground v.1.15,2013-10-11 01:29:00,
2013-10-10 20:39:00,60.8,59.1,30.04,NNE,17,0.0,0.0,94,0.00,,,0.00,0,Wunderground v.1.15,2013-10-11 01:39:00,
2013-10-10 20:44:00,60.7,59.0,30.04,NNE,17,0.0,0.0,94,0.00,,,0.00,0,Wunderground v.1.15,2013-10-11 01:44:00,
2013-10-10 20:54:00,60.5,59.1,30.04,NNE,17,0.0,0.0,95,0.00,,,0.00,0,Wunderground v.1.15,2013-10-11 01:54:00,
2013-10-10 20:59:00,60.4,59.0,30.04,NNE,17,0.0,0.0,95,0.00,,,0.00,0,Wunderground v.1.15,2013-10-11 01:59:00,
2013-10-10 21:09:00,60.3,58.9,30.04,NNE,17,0.0,0.0,95,0.00,,,0.00,0,Wunderground v.1.15,2013-10-11 02:09:00,
2013-10-10 21:19:00,60.2,58.8,30.05,NNE,17,0.0,0.0,95,0.00,,,0.00,0,Wunderground v.1.15,2013-10-11 02:19:00,
2013-10-10 21:24:00,60.0,58.6,30.05,NNE,17,0.0,0.0,95,0.00,,,0.00,0,Wunderground v.1.15,2013-10-11 02:24:00,
2013-10-10 21:34:00,60.0,58.6,30.05,NNE,17,0.0,0.0,95,0.00,,,0.00,0,Wunderground v.1.15,2013-10-11 02:34:00,
2013-10-10 21:39:00,60.0,58.6,30.05,NNE,17,0.0,0.0,95,0.00,,,0.00,0,Wunderground v.1.15,2013-10-11 02:39:00,
2013-10-10 21:49:00,59.8,58.4,30.05,NNE,17,0.0,0.0,95,0.00,,,0.00,0,Wunderground v.1.15,2013-10-11 02:49:00,
2013-10-10 21:54:00,59.7,58.6,30.05,NNE,17,0.0,0.0,96,0.00,,,0.00,0,Wunderground v.1.15,2013-10-11 02:54:00,
2013-10-10 22:04:00,59.5,58.4,30.05,NNE,17,0.0,0.0,96,0.00,,,0.00,0,Wunderground v.1.15,2013-10-11 03:04:00,
2013-10-10 22:14:00,59.4,58.3,30.05,NNE,17,0.0,0.0,96,0.00,,,0.00,0,Wunderground v.1.15,2013-10-11 03:14:00,
2013-10-10 22:24:00,59.4,58.3,30.05,NNE,17,0.0,0.0,96,0.00,,,0.00,0,Wunderground v.1.15,2013-10-11 03:24:00,
2013-10-10 22:29:00,59.4,58.3,30.05,NNE,17,0.0,0.0,96,0.00,,,0.00,0,Wunderground v.1.15,2013-10-11 03:29:00,
2013-10-10 22:39:00,59.0,57.9,30.05,NNE,17,0.0,0.0,96,0.00,,,0.00,0,Wunderground v.1.15,2013-10-11 03:39:00,
2013-10-10 22:49:00,58.8,57.7,30.05,NNE,17,0.0,0.0,96,0.00,,,0.00,0,Wunderground v.1.15,2013-10-11 03:49:00,
2013-10-10 22:54:00,58.7,57.6,30.05,NNE,17,0.0,0.0,96,0.00,,,0.00,0,Wunderground v.1.15,2013-10-11 03:54:00,
2013-10-10 23:04:00,58.6,57.8,30.04,NNE,17,0.0,0.0,97,0.00,,,0.00,0,Wunderground v.1.15,2013-10-11 04:04:00,
2013-10-10 23:09:00,58.5,57.7,30.04,NNE,17,0.0,0.0,97,0.00,,,0.00,0,Wunderground v.1.15,2013-10-11 04:09:00,
2013-10-10 23:14:00,58.5,57.7,30.04,NNE,17,0.0,0.0,97,0.00,,,0.00,0,Wunderground v.1.15,2013-10-11 04:14:00,
2013-10-10 23:24:00,58.6,57.8,30.04,NNE,17,0.0,0.0,97,0.00,,,0.00,0,Wunderground v.1.15,2013-10-11 04:24:00,
2013-10-10 23:34:00,58.4,57.6,30.04,NNE,17,0.0,0.0,97,0.00,,,0.00,0,Wunderground v.1.15,2013-10-11 04:34:00,
2013-10-10 23:39:00,58.4,57.6,30.04,NNE,17,0.0,0.0,97,0.00,,,0.00,0,Wunderground v.1.15,2013-10-11 04:39:00,
2013-10-10 23:49:00,58.3,57.5,30.04,NNE,17,0.0,0.0,97,0.00,,,0.00,0,Wunderground v.1.15,2013-10-11 04:49:00,
2013-10-10 23:54:00,58.4,57.6,30.04,NNE,17,0.0,0.0,97,0.00,,,0.00,0,Wunderground v.1.15,2013-10-11 04:54:00,